sensor_id;sensor_type;location;lat;lon;timestamp;P1;durP1;ratioP1;P2;durP2;ratioP2
4486;SDS011;2256;48.740;9.106;2023-03-05T00:00:05;41.80;;;16.02;;
4486;SDS011;2256;48.740;9.106;2023-03-05T00:02:35;49.37;;;15.83;;
4486;SDS011;2256;48.740;9.106;2023-03-05T00:05:02;44.55;;;17.08;;
4486;SDS011;2256;48.740;9.106;2023-03-05T00:07:30;50.55;;;16.67;;
4486;SDS011;2256;48.740;9.106;2023-03-05T00:09:58;50.35;;;16.30;;
4486;SDS011;2256;48.740;9.106;2023-03-05T00:12:25;41.97;;;14.50;;
4486;SDS011;2256;48.740;9.106;2023-03-05T00:14:52;46.53;;;16.00;;
4486;SDS011;2256;48.740;9.106;2023-03-05T00:17:20;44.40;;;15.65;;
4486;SDS011;2256;48.740;9.106;2023-03-05T00:19:49;44.35;;;15.70;;
4486;SDS011;2256;48.740;9.106;2023-03-05T00:22:17;39.97;;;16.05;;
4486;SDS011;2256;48.740;9.106;2023-03-05T00:24:44;42.97;;;15.05;;
4486;SDS011;2256;48.740;9.106;2023-03-05T00:27:12;41.92;;;16.25;;
4486;SDS011;2256;48.740;9.106;2023-03-05T00:29:39;45.95;;;16.10;;
4486;SDS011;2256;48.740;9.106;2023-03-05T00:32:06;38.50;;;16.17;;
4486;SDS011;2256;48.740;9.106;2023-03-05T00:34:33;32.95;;;14.07;;
4486;SDS011;2256;48.740;9.106;2023-03-05T00:37:12;34.08;;;12.60;;
4486;SDS011;2256;48.740;9.106;2023-03-05T00:39:39;35.63;;;13.93;;
4486;SDS011;2256;48.740;9.106;2023-03-05T00:44:36;43.08;;;14.52;;
4486;SDS011;2256;48.740;9.106;2023-03-05T00:47:03;33.50;;;12.75;;
4486;SDS011;2256;48.740;9.106;2023-03-05T00:49:31;45.47;;;14.38;;
4486;SDS011;2256;48.740;9.106;2023-03-05T00:51:58;25.65;;;11.90;;
4486;SDS011;2256;48.740;9.106;2023-03-05T00:54:27;31.98;;;13.60;;
4486;SDS011;2256;48.740;9.106;2023-03-05T00:56:54;55.83;;;16.95;;
4486;SDS011;2256;48.740;9.106;2023-03-05T00:59:21;37.03;;;15.20;;
4486;SDS011;2256;48.740;9.106;2023-03-05T01:01:48;30.40;;;12.70;;
4486;SDS011;2256;48.740;9.106;2023-03-05T01:04:14;33.78;;;13.15;;
4486;SDS011;2256;48.740;9.106;2023-03-05T01:06:42;38.70;;;14.38;;
4486;SDS011;2256;48.740;9.106;2023-03-05T01:09:10;34.25;;;12.15;;
4486;SDS011;2256;48.740;9.106;2023-03-05T01:11:39;37.50;;;14.07;;
4486;SDS011;2256;48.740;9.106;2023-03-05T01:14:05;39.13;;;13.75;;
4486;SDS011;2256;48.740;9.106;2023-03-05T01:16:32;32.22;;;13.23;;
4486;SDS011;2256;48.740;9.106;2023-03-05T01:18:59;35.25;;;13.05;;
4486;SDS011;2256;48.740;9.106;2023-03-05T01:21:26;33.30;;;13.18;;
4486;SDS011;2256;48.740;9.106;2023-03-05T01:23:53;40.78;;;12.68;;
4486;SDS011;2256;48.740;9.106;2023-03-05T01:26:19;35.25;;;12.52;;
4486;SDS011;2256;48.740;9.106;2023-03-05T01:28:48;34.05;;;13.10;;
4486;SDS011;2256;48.740;9.106;2023-03-05T01:31:15;30.52;;;12.38;;
4486;SDS011;2256;48.740;9.106;2023-03-05T01:33:46;39.40;;;11.63;;
4486;SDS011;2256;48.740;9.106;2023-03-05T01:36:13;30.15;;;12.45;;
4486;SDS011;2256;48.740;9.106;2023-03-05T01:38:41;29.73;;;11.60;;
4486;SDS011;2256;48.740;9.106;2023-03-05T01:41:09;31.83;;;11.60;;
4486;SDS011;2256;48.740;9.106;2023-03-05T01:43:38;33.30;;;11.35;;
4486;SDS011;2256;48.740;9.106;2023-03-05T01:46:23;38.17;;;12.45;;
4486;SDS011;2256;48.740;9.106;2023-03-05T01:49:07;45.03;;;11.48;;
4486;SDS011;2256;48.740;9.106;2023-03-05T01:51:39;32.35;;;12.55;;
4486;SDS011;2256;48.740;9.106;2023-03-05T01:54:10;25.00;;;10.38;;
4486;SDS011;2256;48.740;9.106;2023-03-05T01:56:40;30.70;;;11.07;;
4486;SDS011;2256;48.740;9.106;2023-03-05T01:59:10;26.95;;;11.02;;
4486;SDS011;2256;48.740;9.106;2023-03-05T02:01:41;32.05;;;11.05;;
4486;SDS011;2256;48.740;9.106;2023-03-05T02:04:15;32.70;;;11.68;;
4486;SDS011;2256;48.740;9.106;2023-03-05T02:06:43;27.27;;;10.85;;
4486;SDS011;2256;48.740;9.106;2023-03-05T02:09:11;25.40;;;10.88;;
4486;SDS011;2256;48.740;9.106;2023-03-05T02:11:38;33.00;;;12.07;;
4486;SDS011;2256;48.740;9.106;2023-03-05T02:14:07;35.13;;;10.70;;
4486;SDS011;2256;48.740;9.106;2023-03-05T02:16:34;30.23;;;10.25;;
4486;SDS011;2256;48.740;9.106;2023-03-05T02:19:06;31.45;;;10.77;;
4486;SDS011;2256;48.740;9.106;2023-03-05T02:21:37;25.52;;;10.55;;
4486;SDS011;2256;48.740;9.106;2023-03-05T02:24:05;24.50;;;11.27;;
4486;SDS011;2256;48.740;9.106;2023-03-05T02:26:33;36.60;;;12.10;;
4486;SDS011;2256;48.740;9.106;2023-03-05T02:29:00;39.40;;;12.68;;
4486;SDS011;2256;48.740;9.106;2023-03-05T02:31:28;39.28;;;13.30;;
4486;SDS011;2256;48.740;9.106;2023-03-05T02:33:55;38.97;;;12.40;;
4486;SDS011;2256;48.740;9.106;2023-03-05T02:36:22;33.15;;;13.02;;
4486;SDS011;2256;48.740;9.106;2023-03-05T02:38:53;33.22;;;12.07;;
4486;SDS011;2256;48.740;9.106;2023-03-05T02:41:21;30.80;;;12.75;;
4486;SDS011;2256;48.740;9.106;2023-03-05T02:43:48;41.45;;;12.77;;
4486;SDS011;2256;48.740;9.106;2023-03-05T02:46:16;38.17;;;13.57;;
4486;SDS011;2256;48.740;9.106;2023-03-05T02:48:44;37.55;;;13.23;;
4486;SDS011;2256;48.740;9.106;2023-03-05T02:51:11;43.10;;;13.85;;
4486;SDS011;2256;48.740;9.106;2023-03-05T02:53:39;34.28;;;13.02;;
4486;SDS011;2256;48.740;9.106;2023-03-05T02:56:07;32.80;;;11.80;;
4486;SDS011;2256;48.740;9.106;2023-03-05T02:58:34;33.38;;;12.30;;
4486;SDS011;2256;48.740;9.106;2023-03-05T03:01:01;30.33;;;11.63;;
4486;SDS011;2256;48.740;9.106;2023-03-05T03:03:28;31.88;;;12.35;;
4486;SDS011;2256;48.740;9.106;2023-03-05T03:05:55;29.80;;;12.48;;
4486;SDS011;2256;48.740;9.106;2023-03-05T03:08:22;43.60;;;12.55;;
4486;SDS011;2256;48.740;9.106;2023-03-05T03:10:49;37.42;;;12.98;;
4486;SDS011;2256;48.740;9.106;2023-03-05T03:13:17;32.55;;;12.27;;
4486;SDS011;2256;48.740;9.106;2023-03-05T03:15:44;35.63;;;13.68;;
4486;SDS011;2256;48.740;9.106;2023-03-05T03:18:11;32.22;;;12.07;;
4486;SDS011;2256;48.740;9.106;2023-03-05T03:20:38;29.98;;;11.55;;
4486;SDS011;2256;48.740;9.106;2023-03-05T03:23:05;37.22;;;13.18;;
4486;SDS011;2256;48.740;9.106;2023-03-05T03:25:32;33.17;;;11.50;;
4486;SDS011;2256;48.740;9.106;2023-03-05T03:27:59;32.15;;;12.10;;
4486;SDS011;2256;48.740;9.106;2023-03-05T03:30:28;33.80;;;12.35;;
4486;SDS011;2256;48.740;9.106;2023-03-05T03:32:55;33.40;;;12.60;;
4486;SDS011;2256;48.740;9.106;2023-03-05T03:35:22;32.85;;;12.52;;
4486;SDS011;2256;48.740;9.106;2023-03-05T03:37:49;38.90;;;12.77;;
4486;SDS011;2256;48.740;9.106;2023-03-05T03:40:16;29.77;;;12.98;;
4486;SDS011;2256;48.740;9.106;2023-03-05T03:42:43;27.38;;;11.65;;
4486;SDS011;2256;48.740;9.106;2023-03-05T03:45:10;36.42;;;11.85;;
4486;SDS011;2256;48.740;9.106;2023-03-05T03:47:39;32.28;;;11.68;;
4486;SDS011;2256;48.740;9.106;2023-03-05T03:50:07;37.58;;;12.35;;
4486;SDS011;2256;48.740;9.106;2023-03-05T03:52:35;32.60;;;11.05;;
4486;SDS011;2256;48.740;9.106;2023-03-05T03:55:02;30.42;;;10.90;;
4486;SDS011;2256;48.740;9.106;2023-03-05T03:57:29;30.50;;;11.02;;
4486;SDS011;2256;48.740;9.106;2023-03-05T03:59:59;33.83;;;11.07;;
4486;SDS011;2256;48.740;9.106;2023-03-05T04:02:30;34.20;;;12.30;;
4486;SDS011;2256;48.740;9.106;2023-03-05T04:04:59;36.55;;;11.43;;
4486;SDS011;2256;48.740;9.106;2023-03-05T04:07:26;31.50;;;12.38;;
4486;SDS011;2256;48.740;9.106;2023-03-05T04:09:53;33.72;;;12.32;;
4486;SDS011;2256;48.740;9.106;2023-03-05T04:12:20;38.13;;;12.38;;
4486;SDS011;2256;48.740;9.106;2023-03-05T04:14:48;34.13;;;12.85;;
4486;SDS011;2256;48.740;9.106;2023-03-05T04:17:15;39.33;;;12.07;;
4486;SDS011;2256;48.740;9.106;2023-03-05T04:19:42;40.60;;;12.93;;
4486;SDS011;2256;48.740;9.106;2023-03-05T04:22:11;38.60;;;12.55;;
4486;SDS011;2256;48.740;9.106;2023-03-05T04:24:39;31.35;;;12.13;;
4486;SDS011;2256;48.740;9.106;2023-03-05T04:27:06;31.88;;;12.75;;
4486;SDS011;2256;48.740;9.106;2023-03-05T04:29:33;40.40;;;12.43;;
4486;SDS011;2256;48.740;9.106;2023-03-05T04:32:01;37.03;;;12.38;;
4486;SDS011;2256;48.740;9.106;2023-03-05T04:34:28;42.10;;;12.60;;
4486;SDS011;2256;48.740;9.106;2023-03-05T04:36:55;37.85;;;13.48;;
4486;SDS011;2256;48.740;9.106;2023-03-05T04:39:24;36.83;;;12.32;;
4486;SDS011;2256;48.740;9.106;2023-03-05T04:41:51;36.67;;;13.27;;
4486;SDS011;2256;48.740;9.106;2023-03-05T04:44:18;36.92;;;13.13;;
4486;SDS011;2256;48.740;9.106;2023-03-05T04:46:47;30.42;;;12.95;;
4486;SDS011;2256;48.740;9.106;2023-03-05T04:49:14;32.22;;;12.95;;
4486;SDS011;2256;48.740;9.106;2023-03-05T04:51:41;43.72;;;13.30;;
4486;SDS011;2256;48.740;9.106;2023-03-05T04:54:07;35.90;;;12.50;;
4486;SDS011;2256;48.740;9.106;2023-03-05T04:56:36;47.90;;;13.15;;
4486;SDS011;2256;48.740;9.106;2023-03-05T04:59:02;33.63;;;13.13;;
4486;SDS011;2256;48.740;9.106;2023-03-05T05:01:29;32.30;;;12.27;;
4486;SDS011;2256;48.740;9.106;2023-03-05T05:03:57;32.20;;;12.02;;
4486;SDS011;2256;48.740;9.106;2023-03-05T05:06:23;46.90;;;12.55;;
4486;SDS011;2256;48.740;9.106;2023-03-05T05:08:50;38.70;;;11.80;;
4486;SDS011;2256;48.740;9.106;2023-03-05T05:11:17;35.85;;;11.88;;
4486;SDS011;2256;48.740;9.106;2023-03-05T05:13:45;26.05;;;11.55;;
4486;SDS011;2256;48.740;9.106;2023-03-05T05:16:16;31.48;;;11.30;;
4486;SDS011;2256;48.740;9.106;2023-03-05T05:18:43;37.22;;;13.25;;
4486;SDS011;2256;48.740;9.106;2023-03-05T05:21:11;28.77;;;12.48;;
4486;SDS011;2256;48.740;9.106;2023-03-05T05:23:40;30.20;;;10.48;;
4486;SDS011;2256;48.740;9.106;2023-03-05T05:26:07;33.03;;;11.50;;
4486;SDS011;2256;48.740;9.106;2023-03-05T05:28:39;30.13;;;10.63;;
4486;SDS011;2256;48.740;9.106;2023-03-05T05:31:09;32.95;;;11.70;;
4486;SDS011;2256;48.740;9.106;2023-03-05T05:33:38;31.40;;;11.20;;
4486;SDS011;2256;48.740;9.106;2023-03-05T05:36:06;33.88;;;12.95;;
4486;SDS011;2256;48.740;9.106;2023-03-05T05:38:35;39.92;;;10.70;;
4486;SDS011;2256;48.740;9.106;2023-03-05T05:41:03;31.50;;;11.55;;
4486;SDS011;2256;48.740;9.106;2023-03-05T05:43:31;30.02;;;11.98;;
4486;SDS011;2256;48.740;9.106;2023-03-05T05:45:59;32.67;;;12.00;;
4486;SDS011;2256;48.740;9.106;2023-03-05T05:48:28;34.50;;;11.05;;
4486;SDS011;2256;48.740;9.106;2023-03-05T05:50:55;28.48;;;11.27;;
4486;SDS011;2256;48.740;9.106;2023-03-05T05:53:23;34.58;;;11.88;;
4486;SDS011;2256;48.740;9.106;2023-03-05T05:55:52;44.78;;;12.40;;
4486;SDS011;2256;48.740;9.106;2023-03-05T05:58:18;31.02;;;11.30;;
4486;SDS011;2256;48.740;9.106;2023-03-05T06:00:45;34.65;;;10.90;;
4486;SDS011;2256;48.740;9.106;2023-03-05T06:03:15;29.35;;;10.48;;
4486;SDS011;2256;48.740;9.106;2023-03-05T06:05:43;24.45;;;9.85;;
4486;SDS011;2256;48.740;9.106;2023-03-05T06:08:11;27.33;;;11.05;;
4486;SDS011;2256;48.740;9.106;2023-03-05T06:10:38;40.63;;;11.27;;
4486;SDS011;2256;48.740;9.106;2023-03-05T06:13:05;28.98;;;11.10;;
4486;SDS011;2256;48.740;9.106;2023-03-05T06:15:32;36.72;;;11.07;;
4486;SDS011;2256;48.740;9.106;2023-03-05T06:17:59;31.85;;;11.93;;
4486;SDS011;2256;48.740;9.106;2023-03-05T06:20:27;36.67;;;11.45;;
4486;SDS011;2256;48.740;9.106;2023-03-05T06:22:55;37.42;;;12.38;;
4486;SDS011;2256;48.740;9.106;2023-03-05T06:25:22;35.38;;;11.98;;
4486;SDS011;2256;48.740;9.106;2023-03-05T06:27:49;30.08;;;10.88;;
4486;SDS011;2256;48.740;9.106;2023-03-05T06:30:16;36.53;;;11.40;;
4486;SDS011;2256;48.740;9.106;2023-03-05T06:32:43;30.50;;;12.32;;
4486;SDS011;2256;48.740;9.106;2023-03-05T06:35:10;41.40;;;12.52;;
4486;SDS011;2256;48.740;9.106;2023-03-05T06:37:38;30.35;;;11.50;;
4486;SDS011;2256;48.740;9.106;2023-03-05T06:40:07;30.75;;;11.63;;
4486;SDS011;2256;48.740;9.106;2023-03-05T06:42:35;30.70;;;11.20;;
4486;SDS011;2256;48.740;9.106;2023-03-05T06:45:02;29.27;;;11.27;;
4486;SDS011;2256;48.740;9.106;2023-03-05T06:47:29;31.15;;;11.57;;
4486;SDS011;2256;48.740;9.106;2023-03-05T06:49:56;28.95;;;10.60;;
4486;SDS011;2256;48.740;9.106;2023-03-05T06:52:23;37.65;;;12.55;;
4486;SDS011;2256;48.740;9.106;2023-03-05T06:54:50;33.67;;;12.02;;
4486;SDS011;2256;48.740;9.106;2023-03-05T06:57:21;35.47;;;11.93;;
4486;SDS011;2256;48.740;9.106;2023-03-05T06:59:48;32.90;;;12.50;;
4486;SDS011;2256;48.740;9.106;2023-03-05T07:02:15;30.85;;;11.55;;
4486;SDS011;2256;48.740;9.106;2023-03-05T07:04:43;39.15;;;12.05;;
4486;SDS011;2256;48.740;9.106;2023-03-05T07:07:10;28.92;;;11.52;;
4486;SDS011;2256;48.740;9.106;2023-03-05T07:09:37;31.70;;;10.80;;
4486;SDS011;2256;48.740;9.106;2023-03-05T07:12:07;30.02;;;11.48;;
4486;SDS011;2256;48.740;9.106;2023-03-05T07:14:35;35.13;;;11.88;;
4486;SDS011;2256;48.740;9.106;2023-03-05T07:17:04;42.05;;;13.00;;
4486;SDS011;2256;48.740;9.106;2023-03-05T07:19:31;36.00;;;13.10;;
4486;SDS011;2256;48.740;9.106;2023-03-05T07:22:00;36.13;;;12.55;;
4486;SDS011;2256;48.740;9.106;2023-03-05T07:24:27;28.80;;;11.80;;
4486;SDS011;2256;48.740;9.106;2023-03-05T07:26:54;33.13;;;11.93;;
4486;SDS011;2256;48.740;9.106;2023-03-05T07:29:22;35.22;;;12.82;;
4486;SDS011;2256;48.740;9.106;2023-03-05T07:31:51;36.10;;;12.35;;
4486;SDS011;2256;48.740;9.106;2023-03-05T07:34:18;35.83;;;12.30;;
4486;SDS011;2256;48.740;9.106;2023-03-05T07:36:48;36.53;;;13.10;;
4486;SDS011;2256;48.740;9.106;2023-03-05T07:39:15;26.95;;;11.80;;
4486;SDS011;2256;48.740;9.106;2023-03-05T07:41:43;31.75;;;11.75;;
4486;SDS011;2256;48.740;9.106;2023-03-05T07:44:10;32.90;;;12.68;;
4486;SDS011;2256;48.740;9.106;2023-03-05T07:46:39;30.55;;;11.77;;
4486;SDS011;2256;48.740;9.106;2023-03-05T07:49:08;36.33;;;12.85;;
4486;SDS011;2256;48.740;9.106;2023-03-05T07:51:36;33.45;;;11.90;;
4486;SDS011;2256;48.740;9.106;2023-03-05T07:54:03;30.75;;;12.88;;
4486;SDS011;2256;48.740;9.106;2023-03-05T07:56:30;32.03;;;12.63;;
4486;SDS011;2256;48.740;9.106;2023-03-05T07:58:59;31.33;;;12.35;;
4486;SDS011;2256;48.740;9.106;2023-03-05T08:01:28;25.85;;;11.15;;
4486;SDS011;2256;48.740;9.106;2023-03-05T08:03:56;41.63;;;12.63;;
4486;SDS011;2256;48.740;9.106;2023-03-05T08:06:25;27.50;;;12.27;;
4486;SDS011;2256;48.740;9.106;2023-03-05T08:08:51;36.70;;;12.70;;
4486;SDS011;2256;48.740;9.106;2023-03-05T08:11:18;38.15;;;13.30;;
4486;SDS011;2256;48.740;9.106;2023-03-05T08:13:45;36.53;;;12.00;;
4486;SDS011;2256;48.740;9.106;2023-03-05T08:16:13;34.33;;;12.35;;
4486;SDS011;2256;48.740;9.106;2023-03-05T08:18:44;31.02;;;13.45;;
4486;SDS011;2256;48.740;9.106;2023-03-05T08:21:17;32.22;;;12.40;;
4486;SDS011;2256;48.740;9.106;2023-03-05T08:23:51;41.25;;;14.40;;
4486;SDS011;2256;48.740;9.106;2023-03-05T08:26:24;40.35;;;12.98;;
4486;SDS011;2256;48.740;9.106;2023-03-05T08:28:52;30.48;;;13.10;;
4486;SDS011;2256;48.740;9.106;2023-03-05T08:31:29;31.90;;;12.98;;
4486;SDS011;2256;48.740;9.106;2023-03-05T08:33:57;35.78;;;13.23;;
4486;SDS011;2256;48.740;9.106;2023-03-05T08:36:27;39.50;;;13.52;;
4486;SDS011;2256;48.740;9.106;2023-03-05T08:38:56;38.63;;;13.02;;
4486;SDS011;2256;48.740;9.106;2023-03-05T08:41:23;29.65;;;12.27;;
4486;SDS011;2256;48.740;9.106;2023-03-05T08:43:50;34.25;;;12.25;;
4486;SDS011;2256;48.740;9.106;2023-03-05T08:46:18;37.20;;;13.95;;
4486;SDS011;2256;48.740;9.106;2023-03-05T08:48:45;30.30;;;13.43;;
4486;SDS011;2256;48.740;9.106;2023-03-05T08:51:12;29.85;;;13.32;;
4486;SDS011;2256;48.740;9.106;2023-03-05T08:53:43;33.85;;;13.35;;
4486;SDS011;2256;48.740;9.106;2023-03-05T08:56:12;37.28;;;13.93;;
4486;SDS011;2256;48.740;9.106;2023-03-05T08:58:39;29.15;;;12.20;;
4486;SDS011;2256;48.740;9.106;2023-03-05T09:01:08;32.90;;;13.43;;
4486;SDS011;2256;48.740;9.106;2023-03-05T09:03:36;31.65;;;12.63;;
4486;SDS011;2256;48.740;9.106;2023-03-05T09:06:04;35.78;;;13.88;;
4486;SDS011;2256;48.740;9.106;2023-03-05T09:08:34;33.83;;;14.27;;
4486;SDS011;2256;48.740;9.106;2023-03-05T09:11:02;34.83;;;12.93;;
4486;SDS011;2256;48.740;9.106;2023-03-05T09:13:30;38.20;;;12.77;;
4486;SDS011;2256;48.740;9.106;2023-03-05T09:15:58;35.03;;;12.95;;
4486;SDS011;2256;48.740;9.106;2023-03-05T09:18:26;33.45;;;12.00;;
4486;SDS011;2256;48.740;9.106;2023-03-05T09:20:53;28.50;;;13.27;;
4486;SDS011;2256;48.740;9.106;2023-03-05T09:23:20;29.38;;;12.90;;
4486;SDS011;2256;48.740;9.106;2023-03-05T09:25:49;43.75;;;13.65;;
4486;SDS011;2256;48.740;9.106;2023-03-05T09:28:16;32.97;;;13.45;;
4486;SDS011;2256;48.740;9.106;2023-03-05T09:30:44;32.30;;;12.85;;
4486;SDS011;2256;48.740;9.106;2023-03-05T09:33:11;30.58;;;13.60;;
4486;SDS011;2256;48.740;9.106;2023-03-05T09:35:38;37.17;;;15.10;;
4486;SDS011;2256;48.740;9.106;2023-03-05T09:38:05;28.35;;;13.20;;
4486;SDS011;2256;48.740;9.106;2023-03-05T09:40:39;43.67;;;14.70;;
4486;SDS011;2256;48.740;9.106;2023-03-05T09:43:13;37.50;;;13.65;;
4486;SDS011;2256;48.740;9.106;2023-03-05T09:45:56;33.42;;;13.85;;
4486;SDS011;2256;48.740;9.106;2023-03-05T09:48:31;35.58;;;12.90;;
4486;SDS011;2256;48.740;9.106;2023-03-05T09:51:07;32.53;;;13.73;;
4486;SDS011;2256;48.740;9.106;2023-03-05T09:53:42;32.85;;;14.32;;
4486;SDS011;2256;48.740;9.106;2023-03-05T09:56:12;31.63;;;13.52;;
4486;SDS011;2256;48.740;9.106;2023-03-05T09:58:44;33.08;;;13.57;;
4486;SDS011;2256;48.740;9.106;2023-03-05T10:01:16;36.90;;;14.90;;
4486;SDS011;2256;48.740;9.106;2023-03-05T10:03:49;38.53;;;14.43;;
4486;SDS011;2256;48.740;9.106;2023-03-05T10:06:21;36.90;;;13.57;;
4486;SDS011;2256;48.740;9.106;2023-03-05T10:08:52;41.90;;;13.98;;
4486;SDS011;2256;48.740;9.106;2023-03-05T10:11:26;32.10;;;14.27;;
4486;SDS011;2256;48.740;9.106;2023-03-05T10:14:01;35.37;;;14.43;;
4486;SDS011;2256;48.740;9.106;2023-03-05T10:16:47;37.53;;;14.27;;
4486;SDS011;2256;48.740;9.106;2023-03-05T10:19:29;46.53;;;14.80;;
4486;SDS011;2256;48.740;9.106;2023-03-05T10:22:17;38.25;;;13.52;;
4486;SDS011;2256;48.740;9.106;2023-03-05T10:24:50;38.95;;;15.10;;
4486;SDS011;2256;48.740;9.106;2023-03-05T10:27:31;28.58;;;13.10;;
4486;SDS011;2256;48.740;9.106;2023-03-05T10:30:07;42.35;;;13.25;;
4486;SDS011;2256;48.740;9.106;2023-03-05T10:32:48;36.10;;;13.80;;
4486;SDS011;2256;48.740;9.106;2023-03-05T10:35:29;31.20;;;13.15;;
4486;SDS011;2256;48.740;9.106;2023-03-05T10:38:12;31.67;;;13.98;;
4486;SDS011;2256;48.740;9.106;2023-03-05T10:40:50;35.67;;;14.32;;
4486;SDS011;2256;48.740;9.106;2023-03-05T10:43:21;36.33;;;12.95;;
4486;SDS011;2256;48.740;9.106;2023-03-05T10:45:53;33.10;;;13.80;;
4486;SDS011;2256;48.740;9.106;2023-03-05T10:48:26;41.42;;;13.60;;
4486;SDS011;2256;48.740;9.106;2023-03-05T10:50:59;33.90;;;13.05;;
4486;SDS011;2256;48.740;9.106;2023-03-05T10:53:30;31.98;;;14.13;;
4486;SDS011;2256;48.740;9.106;2023-03-05T10:56:00;35.88;;;14.18;;
4486;SDS011;2256;48.740;9.106;2023-03-05T10:58:28;29.02;;;13.05;;
4486;SDS011;2256;48.740;9.106;2023-03-05T11:01:00;31.52;;;12.95;;
4486;SDS011;2256;48.740;9.106;2023-03-05T11:09:14;33.80;;;14.52;;
4486;SDS011;2256;48.740;9.106;2023-03-05T11:12:01;32.05;;;13.98;;
4486;SDS011;2256;48.740;9.106;2023-03-05T11:14:33;43.65;;;13.30;;
4486;SDS011;2256;48.740;9.106;2023-03-05T11:17:09;40.58;;;15.52;;
4486;SDS011;2256;48.740;9.106;2023-03-05T11:19:53;29.52;;;13.30;;
4486;SDS011;2256;48.740;9.106;2023-03-05T11:22:21;29.38;;;13.40;;
4486;SDS011;2256;48.740;9.106;2023-03-05T11:27:41;26.85;;;12.23;;
4486;SDS011;2256;48.740;9.106;2023-03-05T11:30:18;25.25;;;11.77;;
4486;SDS011;2256;48.740;9.106;2023-03-05T11:32:46;28.48;;;12.52;;
4486;SDS011;2256;48.740;9.106;2023-03-05T11:35:25;34.53;;;11.10;;
4486;SDS011;2256;48.740;9.106;2023-03-05T11:37:58;25.42;;;11.30;;
4486;SDS011;2256;48.740;9.106;2023-03-05T11:40:27;28.67;;;10.73;;
4486;SDS011;2256;48.740;9.106;2023-03-05T11:42:57;25.77;;;11.00;;
4486;SDS011;2256;48.740;9.106;2023-03-05T11:45:26;28.65;;;11.73;;
4486;SDS011;2256;48.740;9.106;2023-03-05T11:47:59;30.92;;;13.02;;
4486;SDS011;2256;48.740;9.106;2023-03-05T11:50:34;32.90;;;12.93;;
4486;SDS011;2256;48.740;9.106;2023-03-05T11:53:03;40.30;;;14.23;;
4486;SDS011;2256;48.740;9.106;2023-03-05T11:55:39;38.97;;;14.63;;
4486;SDS011;2256;48.740;9.106;2023-03-05T11:58:23;40.35;;;14.50;;
4486;SDS011;2256;48.740;9.106;2023-03-05T12:00:55;33.50;;;14.65;;
4486;SDS011;2256;48.740;9.106;2023-03-05T12:03:23;40.25;;;15.00;;
4486;SDS011;2256;48.740;9.106;2023-03-05T12:05:54;34.22;;;15.73;;
4486;SDS011;2256;48.740;9.106;2023-03-05T12:08:26;36.30;;;14.10;;
4486;SDS011;2256;48.740;9.106;2023-03-05T12:10:58;41.15;;;13.43;;
4486;SDS011;2256;48.740;9.106;2023-03-05T12:13:30;33.90;;;14.05;;
4486;SDS011;2256;48.740;9.106;2023-03-05T12:16:08;41.55;;;13.75;;
4486;SDS011;2256;48.740;9.106;2023-03-05T12:18:48;33.38;;;13.93;;
4486;SDS011;2256;48.740;9.106;2023-03-05T12:21:26;41.42;;;14.90;;
4486;SDS011;2256;48.740;9.106;2023-03-05T12:23:59;38.58;;;14.75;;
4486;SDS011;2256;48.740;9.106;2023-03-05T12:29:36;39.75;;;14.88;;
4486;SDS011;2256;48.740;9.106;2023-03-05T12:32:50;40.58;;;15.00;;
4486;SDS011;2256;48.740;9.106;2023-03-05T12:38:19;46.83;;;17.65;;
4486;SDS011;2256;48.740;9.106;2023-03-05T12:44:08;42.08;;;17.00;;
4486;SDS011;2256;48.740;9.106;2023-03-05T12:46:45;49.83;;;17.02;;
4486;SDS011;2256;48.740;9.106;2023-03-05T12:49:50;52.58;;;16.25;;
4486;SDS011;2256;48.740;9.106;2023-03-05T12:52:21;53.10;;;16.40;;
4486;SDS011;2256;48.740;9.106;2023-03-05T12:54:59;45.13;;;17.10;;
4486;SDS011;2256;48.740;9.106;2023-03-05T12:57:30;35.63;;;16.40;;
4486;SDS011;2256;48.740;9.106;2023-03-05T12:59:58;46.28;;;17.70;;
4486;SDS011;2256;48.740;9.106;2023-03-05T13:02:31;45.05;;;16.83;;
4486;SDS011;2256;48.740;9.106;2023-03-05T13:05:02;40.60;;;15.57;;
4486;SDS011;2256;48.740;9.106;2023-03-05T13:07:32;42.30;;;16.17;;
4486;SDS011;2256;48.740;9.106;2023-03-05T13:10:00;35.67;;;14.20;;
4486;SDS011;2256;48.740;9.106;2023-03-05T13:12:28;38.58;;;16.17;;
4486;SDS011;2256;48.740;9.106;2023-03-05T13:14:59;36.60;;;14.60;;
4486;SDS011;2256;48.740;9.106;2023-03-05T13:17:30;35.83;;;14.27;;
4486;SDS011;2256;48.740;9.106;2023-03-05T13:20:21;37.63;;;14.18;;
4486;SDS011;2256;48.740;9.106;2023-03-05T13:23:11;33.13;;;12.65;;
4486;SDS011;2256;48.740;9.106;2023-03-05T13:25:42;35.45;;;13.38;;
4486;SDS011;2256;48.740;9.106;2023-03-05T13:28:13;30.85;;;12.02;;
4486;SDS011;2256;48.740;9.106;2023-03-05T13:30:49;33.03;;;13.07;;
4486;SDS011;2256;48.740;9.106;2023-03-05T13:33:18;31.88;;;13.68;;
4486;SDS011;2256;48.740;9.106;2023-03-05T13:35:49;28.80;;;11.38;;
4486;SDS011;2256;48.740;9.106;2023-03-05T13:38:20;28.55;;;12.05;;
4486;SDS011;2256;48.740;9.106;2023-03-05T13:41:07;37.33;;;14.50;;
4486;SDS011;2256;48.740;9.106;2023-03-05T13:43:44;37.95;;;12.57;;
4486;SDS011;2256;48.740;9.106;2023-03-05T13:46:13;30.08;;;13.02;;
4486;SDS011;2256;48.740;9.106;2023-03-05T13:48:48;30.38;;;11.70;;
4486;SDS011;2256;48.740;9.106;2023-03-05T13:51:15;40.03;;;13.63;;
4486;SDS011;2256;48.740;9.106;2023-03-05T13:53:45;31.98;;;12.50;;
4486;SDS011;2256;48.740;9.106;2023-03-05T13:56:14;35.33;;;11.90;;
4486;SDS011;2256;48.740;9.106;2023-03-05T13:58:47;33.80;;;12.45;;
4486;SDS011;2256;48.740;9.106;2023-03-05T14:01:27;27.52;;;11.98;;
4486;SDS011;2256;48.740;9.106;2023-03-05T14:03:56;39.78;;;12.60;;
4486;SDS011;2256;48.740;9.106;2023-03-05T14:06:25;33.33;;;12.65;;
4486;SDS011;2256;48.740;9.106;2023-03-05T14:08:57;32.35;;;12.60;;
4486;SDS011;2256;48.740;9.106;2023-03-05T14:11:32;27.27;;;11.38;;
4486;SDS011;2256;48.740;9.106;2023-03-05T14:14:04;26.38;;;11.15;;
4486;SDS011;2256;48.740;9.106;2023-03-05T14:16:35;32.95;;;11.50;;
4486;SDS011;2256;48.740;9.106;2023-03-05T14:19:02;38.15;;;12.40;;
4486;SDS011;2256;48.740;9.106;2023-03-05T14:21:44;34.67;;;12.00;;
4486;SDS011;2256;48.740;9.106;2023-03-05T14:24:13;32.50;;;11.77;;
4486;SDS011;2256;48.740;9.106;2023-03-05T14:26:48;27.85;;;11.20;;
4486;SDS011;2256;48.740;9.106;2023-03-05T14:29:18;29.50;;;11.10;;
4486;SDS011;2256;48.740;9.106;2023-03-05T14:31:48;31.67;;;11.07;;
4486;SDS011;2256;48.740;9.106;2023-03-05T14:34:19;30.67;;;11.40;;
4486;SDS011;2256;48.740;9.106;2023-03-05T14:36:49;27.02;;;11.45;;
4486;SDS011;2256;48.740;9.106;2023-03-05T14:39:28;28.15;;;11.57;;
4486;SDS011;2256;48.740;9.106;2023-03-05T14:42:18;29.58;;;11.43;;
4486;SDS011;2256;48.740;9.106;2023-03-05T14:44:55;27.45;;;11.77;;
4486;SDS011;2256;48.740;9.106;2023-03-05T14:47:24;37.17;;;12.32;;
4486;SDS011;2256;48.740;9.106;2023-03-05T14:49:52;28.58;;;10.70;;
4486;SDS011;2256;48.740;9.106;2023-03-05T14:52:19;33.40;;;11.50;;
4486;SDS011;2256;48.740;9.106;2023-03-05T14:54:48;30.88;;;12.30;;
4486;SDS011;2256;48.740;9.106;2023-03-05T14:57:17;29.88;;;12.27;;
4486;SDS011;2256;48.740;9.106;2023-03-05T14:59:46;33.08;;;12.25;;
4486;SDS011;2256;48.740;9.106;2023-03-05T15:02:14;27.30;;;10.10;;
4486;SDS011;2256;48.740;9.106;2023-03-05T15:04:45;43.72;;;12.82;;
4486;SDS011;2256;48.740;9.106;2023-03-05T15:07:14;28.20;;;11.45;;
4486;SDS011;2256;48.740;9.106;2023-03-05T15:09:43;41.20;;;12.65;;
4486;SDS011;2256;48.740;9.106;2023-03-05T15:12:11;31.85;;;11.75;;
4486;SDS011;2256;48.740;9.106;2023-03-05T15:14:40;26.83;;;11.45;;
4486;SDS011;2256;48.740;9.106;2023-03-05T15:17:12;33.17;;;12.75;;
4486;SDS011;2256;48.740;9.106;2023-03-05T15:19:44;39.60;;;13.25;;
4486;SDS011;2256;48.740;9.106;2023-03-05T15:22:11;41.80;;;12.73;;
4486;SDS011;2256;48.740;9.106;2023-03-05T15:24:39;38.38;;;12.38;;